createdAt,value
2022-10-29T00:00:08.586Z,26.75
2022-10-29T00:03:07.277Z,19.27
2022-10-29T00:05:44.478Z,21.33
2022-10-29T00:08:13.392Z,23.70
2022-10-29T00:10:56.594Z,26.15
2022-10-29T00:13:30.526Z,20.75
2022-10-29T00:16:17.194Z,21.55
2022-10-29T00:18:52.558Z,24.85
2022-10-29T00:21:22.663Z,25.95
2022-10-29T00:24:12.614Z,21.42
2022-10-29T00:26:48.049Z,28.05
2022-10-29T00:29:17.734Z,29.00
2022-10-29T00:31:48.809Z,25.77
2022-10-29T00:34:26.927Z,27.08
2022-10-29T00:36:57.823Z,24.50
2022-10-29T00:39:43.962Z,25.35
2022-10-29T00:42:19.923Z,24.95
2022-10-29T00:44:51.517Z,24.92
2022-10-29T00:47:34.030Z,27.83
2022-10-29T00:50:14.902Z,29.90
2022-10-29T00:52:48.556Z,29.25
2022-10-29T00:58:05.499Z,24.27
2022-10-29T01:00:45.858Z,25.30
2022-10-29T01:03:22.299Z,28.60
2022-10-29T01:06:19.717Z,23.90
2022-10-29T01:09:04.308Z,25.50
2022-10-29T01:11:53.822Z,24.38
2022-10-29T01:14:24.169Z,26.63
2022-10-29T01:17:06.972Z,25.60
2022-10-29T01:23:07.477Z,21.65
2022-10-29T01:26:09.367Z,23.80
2022-10-29T01:29:15.182Z,18.77
2022-10-29T01:31:56.649Z,23.85
2022-10-29T01:34:47.712Z,25.95
2022-10-29T01:37:36.308Z,21.23
2022-10-29T01:40:18.137Z,19.40
2022-10-29T01:42:49.888Z,25.17
2022-10-29T01:45:27.475Z,22.63
2022-10-29T01:48:08.007Z,18.33
2022-10-29T01:50:39.842Z,17.73
2022-10-29T01:53:19.589Z,18.20
2022-10-29T01:55:52.852Z,19.58
2022-10-29T01:58:24.959Z,21.77
2022-10-29T02:01:15.498Z,19.35
2022-10-29T02:04:22.411Z,17.73
2022-10-29T02:07:08.556Z,21.30
2022-10-29T02:09:54.699Z,16.60
2022-10-29T02:12:31.645Z,18.70
2022-10-29T02:15:05.194Z,16.52
2022-10-29T02:17:44.134Z,19.88
2022-10-29T02:20:15.485Z,18.92
2022-10-29T02:22:50.174Z,17.38
2022-10-29T02:28:14.106Z,21.00
2022-10-29T02:30:44.267Z,17.92
2022-10-29T02:33:33.799Z,22.98
2022-10-29T02:36:09.828Z,24.13
2022-10-29T02:38:55.185Z,22.80
2022-10-29T02:41:38.373Z,22.98
2022-10-29T02:44:13.993Z,20.77
2022-10-29T02:49:17.895Z,19.67
2022-10-29T02:51:48.193Z,18.80
2022-10-29T02:57:10.654Z,20.92
2022-10-29T02:59:40.059Z,16.45
2022-10-29T03:02:11.958Z,21.40
2022-10-29T03:04:46.730Z,15.13
2022-10-29T03:07:33.469Z,18.25
2022-10-29T03:10:05.024Z,16.77
2022-10-29T03:13:01.521Z,21.23
2022-10-29T03:15:34.458Z,18.65
2022-10-29T03:18:05.348Z,19.38
2022-10-29T03:20:39.280Z,19.05
2022-10-29T03:23:09.939Z,17.17
2022-10-29T03:25:57.101Z,18.25
2022-10-29T03:28:52.021Z,15.82
2022-10-29T03:31:23.833Z,14.88
2022-10-29T03:33:55.698Z,16.60
2022-10-29T03:36:27.603Z,17.33
2022-10-29T03:39:15.462Z,17.40
2022-10-29T03:41:54.412Z,15.38
2022-10-29T03:44:33.638Z,14.75
2022-10-29T03:47:05.762Z,16.83
2022-10-29T03:49:36.890Z,16.33
2022-10-29T03:52:16.969Z,16.63
2022-10-29T03:54:49.644Z,17.50
2022-10-29T03:57:37.451Z,20.88
2022-10-29T04:00:16.980Z,17.02
2022-10-29T04:02:51.102Z,21.70
2022-10-29T04:05:20.285Z,18.63
2022-10-29T04:07:51.765Z,20.63
2022-10-29T04:10:42.094Z,20.33
2022-10-29T04:13:14.734Z,15.95
2022-10-29T04:15:46.893Z,23.52
2022-10-29T04:18:18.764Z,19.75
2022-10-29T04:22:31.612Z,18.10
2022-10-29T04:29:22.443Z,23.15
2022-10-29T04:31:57.735Z,16.88
2022-10-29T04:34:44.150Z,21.20
2022-10-29T04:37:14.855Z,16.45
2022-10-29T04:39:52.403Z,17.10
2022-10-29T04:42:22.292Z,15.15
2022-10-29T04:44:56.171Z,15.77
2022-10-29T04:47:30.256Z,17.40
2022-10-29T04:50:01.798Z,18.33
2022-10-29T04:52:35.271Z,20.08
2022-10-29T04:55:09.211Z,20.10
2022-10-29T04:57:49.780Z,21.33
2022-10-29T05:00:37.610Z,19.05
2022-10-29T05:03:08.885Z,15.07
2022-10-29T05:05:45.878Z,21.15
2022-10-29T05:11:14.133Z,21.05
2022-10-29T05:13:50.441Z,17.83
2022-10-29T05:19:23.843Z,19.73
2022-10-29T05:21:52.980Z,20.13
2022-10-29T05:24:23.734Z,17.95
2022-10-29T05:26:53.275Z,16.67
2022-10-29T05:29:24.239Z,18.98
2022-10-29T05:32:00.358Z,19.25
2022-10-29T05:34:44.428Z,21.25
2022-10-29T05:37:27.679Z,21.98
2022-10-29T05:40:16.323Z,22.38
2022-10-29T05:42:47.382Z,23.63
2022-10-29T05:45:28.980Z,23.92
2022-10-29T05:48:18.032Z,20.48
2022-10-29T05:51:05.661Z,21.08
2022-10-29T05:53:48.137Z,18.05
2022-10-29T05:56:21.526Z,19.50
2022-10-29T05:59:04.027Z,18.10
2022-10-29T06:01:53.528Z,14.48
2022-10-29T06:04:52.489Z,25.02
2022-10-29T06:08:03.133Z,21.20
2022-10-29T06:10:35.966Z,20.83
2022-10-29T06:13:19.431Z,17.63
2022-10-29T06:15:51.812Z,22.45
2022-10-29T06:18:23.263Z,18.65
2022-10-29T06:21:12.142Z,19.50
2022-10-29T06:23:44.982Z,17.48
2022-10-29T06:26:20.437Z,16.42
2022-10-29T06:28:56.362Z,20.02
2022-10-29T06:31:38.310Z,21.33
2022-10-29T06:37:11.817Z,16.23
2022-10-29T06:39:51.150Z,21.40
2022-10-29T06:42:19.833Z,16.63
2022-10-29T06:45:01.766Z,17.33
2022-10-29T06:47:45.805Z,17.00
2022-10-29T06:50:18.948Z,16.10
2022-10-29T06:53:04.627Z,12.80
2022-10-29T06:55:37.465Z,17.42
2022-10-29T06:58:22.214Z,15.50
2022-10-29T07:01:29.133Z,15.15
2022-10-29T07:04:08.514Z,16.85
2022-10-29T07:07:20.647Z,16.55
2022-10-29T07:10:31.038Z,20.35
2022-10-29T07:19:38.539Z,14.55
2022-10-29T07:22:12.049Z,16.63
2022-10-29T07:25:00.269Z,13.90
2022-10-29T07:27:43.839Z,19.30
2022-10-29T07:30:48.802Z,15.25
2022-10-29T07:33:27.727Z,17.50
2022-10-29T07:36:00.806Z,23.13
2022-10-29T07:38:40.306Z,20.67
2022-10-29T07:41:11.630Z,22.90
2022-10-29T07:43:43.743Z,24.95
2022-10-29T07:46:12.861Z,27.73
2022-10-29T07:48:44.995Z,23.40
2022-10-29T07:51:15.802Z,21.63
2022-10-29T07:53:51.838Z,19.35
2022-10-29T07:56:20.840Z,23.50
2022-10-29T07:59:05.732Z,25.23
2022-10-29T08:01:36.727Z,26.25
2022-10-29T08:04:10.043Z,23.92
2022-10-29T08:06:43.000Z,23.60
2022-10-29T08:09:28.120Z,21.20
2022-10-29T08:12:20.228Z,20.60
2022-10-29T08:14:54.963Z,21.50
2022-10-29T08:17:34.876Z,21.35
2022-10-29T08:20:08.232Z,19.35
2022-10-29T08:28:29.297Z,17.67
2022-10-29T08:31:04.886Z,17.38
2022-10-29T08:33:45.709Z,17.60
2022-10-29T08:36:21.827Z,19.08
2022-10-29T08:39:06.739Z,14.00
2022-10-29T08:42:07.686Z,14.68
2022-10-29T08:45:21.386Z,19.77
2022-10-29T08:48:29.700Z,15.80
2022-10-29T08:51:26.040Z,15.38
2022-10-29T08:57:12.755Z,16.33
2022-10-29T08:59:55.556Z,18.25
2022-10-29T09:06:09.862Z,18.88
2022-10-29T09:09:06.732Z,20.33
2022-10-29T09:12:12.628Z,15.00
2022-10-29T09:15:22.619Z,15.63
2022-10-29T09:18:19.872Z,18.08
2022-10-29T09:21:13.186Z,20.58
2022-10-29T09:24:14.918Z,18.15
2022-10-29T09:26:54.381Z,16.65
2022-10-29T09:29:41.849Z,18.95
2022-10-29T09:32:35.659Z,20.85
2022-10-29T09:35:14.943Z,17.45
2022-10-29T09:38:08.088Z,14.98
2022-10-29T09:40:41.133Z,20.75
2022-10-29T09:43:50.049Z,18.65
2022-10-29T09:46:46.637Z,17.83
2022-10-29T09:49:46.866Z,17.48
2022-10-29T09:52:19.914Z,17.38
2022-10-29T09:54:58.324Z,17.08
2022-10-29T09:57:30.097Z,18.92
2022-10-29T10:00:17.639Z,16.15
2022-10-29T10:02:49.861Z,16.27
2022-10-29T10:05:31.573Z,14.35
2022-10-29T10:08:18.767Z,17.20
2022-10-29T10:10:54.338Z,18.73
2022-10-29T10:13:27.807Z,19.85
2022-10-29T10:15:59.818Z,20.65
2022-10-29T10:24:32.112Z,14.23
2022-10-29T10:27:31.290Z,12.73
2022-10-29T10:33:27.262Z,18.17
2022-10-29T10:36:08.536Z,13.43
2022-10-29T10:38:47.163Z,15.15
2022-10-29T10:41:23.122Z,12.88
2022-10-29T10:46:40.336Z,10.32
2022-10-29T10:49:19.202Z,18.00
2022-10-29T10:51:56.133Z,14.85
2022-10-29T10:54:48.705Z,13.95
2022-10-29T10:57:32.730Z,10.98
2022-10-29T11:00:19.852Z,11.20
2022-10-29T11:03:00.581Z,11.82
2022-10-29T11:06:05.502Z,13.65
2022-10-29T11:08:38.545Z,18.55
2022-10-29T11:11:14.024Z,15.60
2022-10-29T11:13:44.136Z,16.00
2022-10-29T11:16:32.023Z,12.07
2022-10-29T11:19:26.487Z,12.50
2022-10-29T11:22:19.905Z,15.60
2022-10-29T11:24:57.799Z,18.00
2022-10-29T11:27:53.124Z,17.77
2022-10-29T11:30:28.450Z,12.55
2022-10-29T11:33:16.828Z,14.32
2022-10-29T11:35:53.241Z,14.48
2022-10-29T11:38:35.739Z,12.93
2022-10-29T11:41:18.071Z,13.30
2022-10-29T11:44:07.075Z,13.98
2022-10-29T11:47:19.303Z,13.32
2022-10-29T11:50:35.928Z,14.85
2022-10-29T11:53:14.074Z,14.15
2022-10-29T11:58:38.160Z,12.57
2022-10-29T12:01:38.156Z,10.25
2022-10-29T12:04:51.136Z,12.00
2022-10-29T12:07:46.596Z,16.13
2022-10-29T12:10:51.632Z,10.57
2022-10-29T12:13:59.053Z,15.85
2022-10-29T12:17:06.074Z,9.45
2022-10-29T12:22:43.606Z,10.65
2022-10-29T12:25:25.162Z,9.15
2022-10-29T12:28:28.167Z,12.65
2022-10-29T12:34:30.980Z,9.48
2022-10-29T12:37:07.250Z,12.77
2022-10-29T12:39:41.972Z,13.05
2022-10-29T12:42:26.247Z,13.50
2022-10-29T12:45:08.640Z,9.68
2022-10-29T12:47:45.096Z,10.13
2022-10-29T12:50:33.945Z,11.25
2022-10-29T12:53:19.413Z,9.45
2022-10-29T12:56:16.488Z,12.38
2022-10-29T12:58:53.258Z,9.27
2022-10-29T13:02:11.504Z,9.32
2022-10-29T13:05:27.049Z,15.20
2022-10-29T13:07:58.739Z,11.45
2022-10-29T13:10:42.117Z,7.88
2022-10-29T13:19:11.679Z,11.75
2022-10-29T13:21:59.699Z,18.83
2022-10-29T13:24:48.693Z,18.27
2022-10-29T13:27:27.848Z,13.88
2022-10-29T13:30:32.058Z,12.25
2022-10-29T13:33:27.084Z,10.77
2022-10-29T13:35:58.211Z,10.35
2022-10-29T13:39:04.523Z,13.85
2022-10-29T13:41:45.574Z,11.70
2022-10-29T13:44:25.698Z,28.60
2022-10-29T13:47:21.710Z,14.50
2022-10-29T13:49:50.897Z,11.52
2022-10-29T13:52:27.355Z,14.63
2022-10-29T13:55:17.309Z,15.20
2022-10-29T13:58:17.486Z,42.00
2022-10-29T14:00:46.804Z,15.18
2022-10-29T14:03:40.139Z,50.28
2022-10-29T14:06:23.519Z,9.45
2022-10-29T14:09:12.931Z,19.33
2022-10-29T14:12:00.503Z,28.55
2022-10-29T14:14:41.169Z,52.30
2022-10-29T14:17:18.193Z,63.92
2022-10-29T14:23:24.617Z,39.08
2022-10-29T14:26:06.192Z,15.00
2022-10-29T14:28:55.460Z,14.23
2022-10-29T14:31:28.998Z,117.00
2022-10-29T14:34:05.124Z,168.80
2022-10-29T14:36:53.183Z,76.50
2022-10-29T14:39:59.175Z,37.50
2022-10-29T14:42:54.867Z,24.80
2022-10-29T14:45:29.609Z,20.48
2022-10-29T14:48:01.812Z,23.90
2022-10-29T14:50:37.344Z,15.52
2022-10-29T14:53:10.793Z,18.50
2022-10-29T14:56:00.368Z,60.53
2022-10-29T14:58:39.888Z,65.95
2022-10-29T15:01:25.823Z,35.95
2022-10-29T15:03:59.578Z,17.75
2022-10-29T15:06:40.240Z,15.68
2022-10-29T15:09:37.474Z,13.60
2022-10-29T15:12:27.931Z,31.52
2022-10-29T15:15:19.620Z,21.05
2022-10-29T15:18:04.531Z,36.65
2022-10-29T15:20:43.250Z,21.08
2022-10-29T15:23:35.877Z,40.05
2022-10-29T15:26:40.134Z,26.63
2022-10-29T15:29:14.152Z,30.65
2022-10-29T15:31:49.550Z,22.17
2022-10-29T15:34:31.822Z,15.55
2022-10-29T15:37:42.474Z,18.98
2022-10-29T15:40:31.571Z,17.10
2022-10-29T15:43:32.815Z,15.35
2022-10-29T15:46:06.354Z,18.05
2022-10-29T15:48:39.699Z,15.82
2022-10-29T15:51:12.953Z,21.90
2022-10-29T15:53:42.998Z,18.63
2022-10-29T15:56:15.855Z,23.27
2022-10-29T15:58:46.406Z,23.63
2022-10-29T16:01:18.076Z,23.80
2022-10-29T16:03:57.901Z,17.73
2022-10-29T16:06:41.755Z,21.08
2022-10-29T16:09:18.796Z,24.10
2022-10-29T16:11:47.156Z,27.48
2022-10-29T16:14:20.786Z,28.30
2022-10-29T16:17:04.282Z,26.58
2022-10-29T16:19:37.375Z,34.28
2022-10-29T16:22:28.219Z,32.53
2022-10-29T16:25:12.798Z,30.60
2022-10-29T16:30:28.875Z,24.08
2022-10-29T16:33:02.190Z,17.27
2022-10-29T16:35:54.366Z,19.67
2022-10-29T16:38:22.886Z,22.40
2022-10-29T16:40:51.716Z,19.00
2022-10-29T16:43:21.407Z,19.00
2022-10-29T16:48:22.596Z,19.52
2022-10-29T16:51:15.164Z,18.50
2022-10-29T16:53:51.418Z,19.00
2022-10-29T16:56:40.368Z,34.58
2022-10-29T16:59:09.567Z,22.60
2022-10-29T17:01:40.433Z,32.00
2022-10-29T17:04:10.549Z,37.45
2022-10-29T17:06:42.157Z,24.48
2022-10-29T17:09:40.376Z,18.75
2022-10-29T17:12:22.698Z,16.60
2022-10-29T17:14:59.439Z,27.15
2022-10-29T17:19:59.008Z,21.65
2022-10-29T17:22:29.044Z,38.15
2022-10-29T17:25:13.212Z,29.77
2022-10-29T17:27:48.447Z,27.50
2022-10-29T17:30:18.235Z,23.77
2022-10-29T17:32:48.703Z,24.33
2022-10-29T17:35:17.646Z,19.08
2022-10-29T17:37:49.827Z,18.45
2022-10-29T17:40:30.291Z,21.42
2022-10-29T17:43:02.681Z,24.58
2022-10-29T17:45:34.281Z,38.97
2022-10-29T17:48:04.988Z,28.42
2022-10-29T17:50:34.349Z,31.45
2022-10-29T17:53:04.835Z,26.95
2022-10-29T17:55:33.705Z,21.77
2022-10-29T17:58:03.616Z,32.03
2022-10-29T18:00:38.783Z,38.78
2022-10-29T18:03:07.827Z,21.10
2022-10-29T18:05:41.873Z,18.50
2022-10-29T18:08:14.578Z,15.00
2022-10-29T18:10:46.434Z,18.15
2022-10-29T18:13:15.417Z,14.35
2022-10-29T18:15:44.809Z,17.25
2022-10-29T18:18:16.573Z,19.83
2022-10-29T18:20:47.700Z,17.98
2022-10-29T18:23:26.305Z,20.60
2022-10-29T18:26:07.852Z,27.98
2022-10-29T18:28:43.576Z,19.92
2022-10-29T18:31:14.117Z,26.08
2022-10-29T18:33:43.373Z,20.05
2022-10-29T18:36:12.904Z,47.58
2022-10-29T18:38:47.128Z,38.72
2022-10-29T18:41:17.522Z,38.83
2022-10-29T18:43:52.533Z,18.10
2022-10-29T18:46:22.743Z,31.23
2022-10-29T18:48:53.573Z,27.55
2022-10-29T18:51:24.579Z,23.23
2022-10-29T18:53:58.800Z,25.83
2022-10-29T18:56:30.846Z,24.60
2022-10-29T18:59:06.596Z,22.98
2022-10-29T19:01:38.003Z,21.40
2022-10-29T19:04:08.587Z,81.97
2022-10-29T19:07:00.412Z,34.92
2022-10-29T19:09:30.498Z,37.75
2022-10-29T19:12:04.090Z,29.98
2022-10-29T19:14:33.643Z,32.00
2022-10-29T19:17:07.984Z,21.13
2022-10-29T19:19:39.830Z,19.42
2022-10-29T19:22:09.277Z,63.85
2022-10-29T19:24:39.509Z,26.73
2022-10-29T19:27:09.719Z,31.02
2022-10-29T19:29:38.757Z,32.42
2022-10-29T19:32:08.036Z,44.13
2022-10-29T19:37:16.718Z,18.17
2022-10-29T19:39:45.469Z,19.95
2022-10-29T19:42:21.580Z,29.05
2022-10-29T19:44:56.450Z,31.02
2022-10-29T19:47:30.423Z,35.50
2022-10-29T19:50:08.324Z,25.45
2022-10-29T19:52:46.961Z,29.60
2022-10-29T19:55:28.889Z,22.90
2022-10-29T19:57:59.790Z,33.17
2022-10-29T20:00:31.897Z,31.13
2022-10-29T20:03:05.860Z,26.38
2022-10-29T20:05:41.381Z,31.52
2022-10-29T20:08:16.276Z,40.70
2022-10-29T20:10:47.734Z,42.78
2022-10-29T20:13:19.535Z,42.60
2022-10-29T20:15:48.324Z,40.20
2022-10-29T20:18:18.774Z,45.58
2022-10-29T20:20:54.837Z,34.97
2022-10-29T20:23:27.760Z,42.25
2022-10-29T20:25:58.865Z,99.85
2022-10-29T20:28:32.033Z,79.20
2022-10-29T20:31:20.540Z,80.82
2022-10-29T20:33:55.482Z,66.85
2022-10-29T20:36:27.349Z,29.52
2022-10-29T20:38:58.750Z,20.42
2022-10-29T20:41:27.716Z,25.73
2022-10-29T20:44:06.244Z,39.20
2022-10-29T20:46:42.643Z,35.53
2022-10-29T20:49:13.450Z,27.88
2022-10-29T20:51:42.172Z,42.90
2022-10-29T20:54:12.009Z,37.75
2022-10-29T20:56:47.681Z,30.48
2022-10-29T20:59:18.024Z,32.35
2022-10-29T21:01:50.672Z,43.75
2022-10-29T21:04:19.767Z,50.22
2022-10-29T21:06:50.527Z,31.85
2022-10-29T21:09:19.513Z,34.47
2022-10-29T21:11:48.355Z,42.72
2022-10-29T21:14:17.943Z,59.35
2022-10-29T21:16:49.728Z,44.15
2022-10-29T21:19:18.419Z,51.78
2022-10-29T21:21:47.131Z,46.92
2022-10-29T21:24:22.673Z,30.80
2022-10-29T21:26:52.113Z,28.10
2022-10-29T21:29:20.444Z,27.55
2022-10-29T21:31:50.318Z,36.83
2022-10-29T21:34:18.700Z,50.10
2022-10-29T21:36:48.224Z,58.92
2022-10-29T21:39:16.512Z,55.00
2022-10-29T21:41:45.016Z,32.10
2022-10-29T21:44:14.810Z,46.05
2022-10-29T21:46:43.687Z,42.03
2022-10-29T21:49:13.690Z,39.47
2022-10-29T21:51:42.216Z,30.02
2022-10-29T21:54:12.253Z,33.42
2022-10-29T21:56:49.357Z,42.10
2022-10-29T21:59:19.257Z,39.30
2022-10-29T22:01:47.395Z,35.42
2022-10-29T22:04:16.170Z,44.17
2022-10-29T22:06:46.830Z,42.85
2022-10-29T22:09:16.447Z,43.45
2022-10-29T22:11:44.659Z,48.38
2022-10-29T22:14:14.700Z,46.60
2022-10-29T22:16:45.716Z,45.17
2022-10-29T22:19:14.950Z,54.35
2022-10-29T22:21:45.280Z,55.42
2022-10-29T22:24:14.249Z,51.95
2022-10-29T22:26:48.609Z,81.43
2022-10-29T22:29:17.275Z,97.97
2022-10-29T22:31:46.003Z,65.28
2022-10-29T22:34:14.478Z,47.92
2022-10-29T22:36:42.884Z,59.08
2022-10-29T22:39:11.908Z,47.55
2022-10-29T22:41:42.372Z,44.25
2022-10-29T22:44:13.727Z,41.15
2022-10-29T22:46:45.776Z,43.80
2022-10-29T22:49:16.861Z,34.35
2022-10-29T22:51:45.182Z,35.90
2022-10-29T22:54:14.086Z,41.40
2022-10-29T22:56:44.311Z,41.25
2022-10-29T22:59:13.715Z,32.40
2022-10-29T23:01:45.593Z,27.25
2022-10-29T23:04:17.430Z,26.13
2022-10-29T23:06:47.856Z,23.70
2022-10-29T23:09:22.591Z,26.35
2022-10-29T23:11:51.106Z,28.85
2022-10-29T23:14:27.195Z,19.42
2022-10-29T23:16:56.616Z,23.77
2022-10-29T23:19:27.758Z,24.50
2022-10-29T23:21:57.594Z,22.65
2022-10-29T23:24:30.293Z,23.00
2022-10-29T23:26:59.330Z,19.02
2022-10-29T23:29:29.786Z,27.45
2022-10-29T23:32:00.471Z,41.50
2022-10-29T23:34:35.845Z,44.85
2022-10-29T23:37:05.730Z,30.27
2022-10-29T23:39:37.670Z,25.92
2022-10-29T23:42:06.010Z,22.35
2022-10-29T23:44:34.058Z,21.92
2022-10-29T23:47:04.099Z,21.88
2022-10-29T23:49:34.103Z,20.63
2022-10-29T23:52:03.525Z,20.38
2022-10-29T23:54:33.131Z,19.05
2022-10-29T23:57:03.646Z,19.88
2022-10-29T23:59:32.470Z,20.85
